sensor_id;sensor_type;location;lat;lon;timestamp;pressure;altitude;pressure_sealevel;temperature;humidity
35778;BME280;21899;42.662;23.316;2022-10-16T00:01:53;95054.13;;;8.39;100.00
35778;BME280;21899;42.662;23.316;2022-10-16T00:04:18;95054.06;;;8.35;100.00
35778;BME280;21899;42.662;23.316;2022-10-16T00:06:43;95049.44;;;8.32;100.00
35778;BME280;21899;42.662;23.316;2022-10-16T00:09:08;95052.47;;;8.31;100.00
35778;BME280;21899;42.662;23.316;2022-10-16T00:11:35;95060.81;;;8.29;100.00
35778;BME280;21899;42.662;23.316;2022-10-16T00:14:02;95066.59;;;8.31;100.00
35778;BME280;21899;42.662;23.316;2022-10-16T00:16:28;95063.22;;;8.34;100.00
35778;BME280;21899;42.662;23.316;2022-10-16T00:18:53;95065.44;;;8.32;100.00
35778;BME280;21899;42.662;23.316;2022-10-16T00:21:20;95061.66;;;8.33;100.00
35778;BME280;21899;42.662;23.316;2022-10-16T00:23:46;95066.59;;;8.31;100.00
35778;BME280;21899;42.662;23.316;2022-10-16T00:26:13;95062.28;;;8.27;100.00
35778;BME280;21899;42.662;23.316;2022-10-16T00:28:39;95067.63;;;8.27;100.00
35778;BME280;21899;42.662;23.316;2022-10-16T00:31:05;95074.44;;;8.24;100.00
35778;BME280;21899;42.662;23.316;2022-10-16T00:33:30;95072.88;;;8.23;100.00
35778;BME280;21899;42.662;23.316;2022-10-16T00:35:57;95079.69;;;8.21;100.00
35778;BME280;21899;42.662;23.316;2022-10-16T00:38:23;95076.59;;;8.19;100.00
35778;BME280;21899;42.662;23.316;2022-10-16T00:40:48;95078.00;;;8.13;100.00
35778;BME280;21899;42.662;23.316;2022-10-16T00:43:14;95081.78;;;8.12;100.00
35778;BME280;21899;42.662;23.316;2022-10-16T00:45:40;95088.09;;;8.04;100.00
35778;BME280;21899;42.662;23.316;2022-10-16T00:48:06;95076.69;;;8.03;100.00
35778;BME280;21899;42.662;23.316;2022-10-16T00:50:33;95067.91;;;8.03;100.00
35778;BME280;21899;42.662;23.316;2022-10-16T00:53:00;95073.06;;;7.95;100.00
35778;BME280;21899;42.662;23.316;2022-10-16T00:55:27;95069.97;;;7.93;100.00
35778;BME280;21899;42.662;23.316;2022-10-16T00:57:54;95074.22;;;7.94;100.00
35778;BME280;21899;42.662;23.316;2022-10-16T01:00:22;95070.41;;;7.95;100.00
35778;BME280;21899;42.662;23.316;2022-10-16T01:02:51;95079.53;;;7.94;100.00
35778;BME280;21899;42.662;23.316;2022-10-16T01:05:17;95079.47;;;7.91;100.00
35778;BME280;21899;42.662;23.316;2022-10-16T01:07:52;95080.56;;;7.90;100.00
35778;BME280;21899;42.662;23.316;2022-10-16T01:12:52;95084.28;;;7.85;100.00
35778;BME280;21899;42.662;23.316;2022-10-16T01:20:26;95079.06;;;7.73;100.00
35778;BME280;21899;42.662;23.316;2022-10-16T01:25:39;95069.97;;;7.74;100.00
35778;BME280;21899;42.662;23.316;2022-10-16T01:28:06;95072.22;;;7.72;100.00
35778;BME280;21899;42.662;23.316;2022-10-16T01:30:33;95068.41;;;7.73;100.00
35778;BME280;21899;42.662;23.316;2022-10-16T01:35:56;95068.56;;;7.61;100.00
35778;BME280;21899;42.662;23.316;2022-10-16T01:38:34;95070.09;;;7.62;100.00
35778;BME280;21899;42.662;23.316;2022-10-16T01:41:06;95069.94;;;7.55;100.00
35778;BME280;21899;42.662;23.316;2022-10-16T01:43:55;95069.94;;;7.55;100.00
35778;BME280;21899;42.662;23.316;2022-10-16T01:46:18;95061.63;;;7.57;100.00
35778;BME280;21899;42.662;23.316;2022-10-16T01:48:46;95072.28;;;7.57;100.00
35778;BME280;21899;42.662;23.316;2022-10-16T01:51:12;95069.09;;;7.51;100.00
35778;BME280;21899;42.662;23.316;2022-10-16T01:53:39;95081.72;;;7.54;100.00
35778;BME280;21899;42.662;23.316;2022-10-16T01:56:06;95075.25;;;7.55;100.00
35778;BME280;21899;42.662;23.316;2022-10-16T01:58:34;95087.31;;;7.49;100.00
35778;BME280;21899;42.662;23.316;2022-10-16T02:01:01;95078.56;;;7.49;100.00
35778;BME280;21899;42.662;23.316;2022-10-16T02:03:27;95086.69;;;7.56;100.00
35778;BME280;21899;42.662;23.316;2022-10-16T02:05:53;95089.00;;;7.57;100.00
35778;BME280;21899;42.662;23.316;2022-10-16T02:08:19;95085.59;;;7.57;100.00
35778;BME280;21899;42.662;23.316;2022-10-16T02:10:45;95092.91;;;7.60;100.00
35778;BME280;21899;42.662;23.316;2022-10-16T02:13:18;95085.66;;;7.60;100.00
35778;BME280;21899;42.662;23.316;2022-10-16T02:15:45;95091.69;;;7.57;100.00
35778;BME280;21899;42.662;23.316;2022-10-16T02:18:10;95099.31;;;7.59;100.00
35778;BME280;21899;42.662;23.316;2022-10-16T02:20:39;95097.44;;;7.59;100.00
35778;BME280;21899;42.662;23.316;2022-10-16T02:23:07;95103.19;;;7.61;100.00
35778;BME280;21899;42.662;23.316;2022-10-16T02:25:37;95108.00;;;7.56;100.00
35778;BME280;21899;42.662;23.316;2022-10-16T02:28:13;95109.91;;;7.55;100.00
35778;BME280;21899;42.662;23.316;2022-10-16T02:30:46;95109.50;;;7.53;100.00
35778;BME280;21899;42.662;23.316;2022-10-16T02:33:15;95112.44;;;7.48;100.00
35778;BME280;21899;42.662;23.316;2022-10-16T02:35:41;95108.47;;;7.42;100.00
35778;BME280;21899;42.662;23.316;2022-10-16T02:38:08;95110.72;;;7.40;100.00
35778;BME280;21899;42.662;23.316;2022-10-16T02:40:34;95114.13;;;7.41;100.00
35778;BME280;21899;42.662;23.316;2022-10-16T02:43:00;95103.00;;;7.35;100.00
35778;BME280;21899;42.662;23.316;2022-10-16T02:45:25;95106.41;;;7.36;100.00
35778;BME280;21899;42.662;23.316;2022-10-16T02:47:50;95114.41;;;7.36;100.00
35778;BME280;21899;42.662;23.316;2022-10-16T02:50:16;95112.53;;;7.36;100.00
35778;BME280;21899;42.662;23.316;2022-10-16T02:52:41;95117.41;;;7.34;100.00
35778;BME280;21899;42.662;23.316;2022-10-16T02:55:06;95118.97;;;7.35;100.00
35778;BME280;21899;42.662;23.316;2022-10-16T02:57:32;95119.50;;;7.25;100.00
35778;BME280;21899;42.662;23.316;2022-10-16T02:59:57;95121.28;;;7.21;100.00
35778;BME280;21899;42.662;23.316;2022-10-16T03:02:23;95120.09;;;7.19;100.00
35778;BME280;21899;42.662;23.316;2022-10-16T03:04:48;95120.00;;;7.15;100.00
35778;BME280;21899;42.662;23.316;2022-10-16T03:07:13;95123.38;;;7.12;100.00
35778;BME280;21899;42.662;23.316;2022-10-16T03:09:38;95122.16;;;7.10;100.00
35778;BME280;21899;42.662;23.316;2022-10-16T03:12:04;95124.38;;;7.08;100.00
35778;BME280;21899;42.662;23.316;2022-10-16T03:14:29;95122.84;;;7.07;100.00
35778;BME280;21899;42.662;23.316;2022-10-16T03:16:54;95128.06;;;7.03;100.00
35778;BME280;21899;42.662;23.316;2022-10-16T03:19:20;95132.72;;;7.06;100.00
35778;BME280;21899;42.662;23.316;2022-10-16T03:21:45;95133.41;;;7.03;100.00
35778;BME280;21899;42.662;23.316;2022-10-16T03:24:11;95131.09;;;7.02;100.00
35778;BME280;21899;42.662;23.316;2022-10-16T03:26:36;95132.97;;;7.01;100.00
35778;BME280;21899;42.662;23.316;2022-10-16T03:29:02;95138.03;;;7.06;100.00
35778;BME280;21899;42.662;23.316;2022-10-16T03:31:28;95135.81;;;7.08;100.00
35778;BME280;21899;42.662;23.316;2022-10-16T03:33:53;95137.34;;;7.09;100.00
35778;BME280;21899;42.662;23.316;2022-10-16T03:36:18;95142.66;;;7.09;100.00
35778;BME280;21899;42.662;23.316;2022-10-16T03:38:43;95143.09;;;7.11;100.00
35778;BME280;21899;42.662;23.316;2022-10-16T03:41:09;95138.47;;;7.08;100.00
35778;BME280;21899;42.662;23.316;2022-10-16T03:43:34;95135.03;;;7.08;100.00
35778;BME280;21899;42.662;23.316;2022-10-16T03:45:59;95137.69;;;7.08;100.00
35778;BME280;21899;42.662;23.316;2022-10-16T03:48:24;95128.84;;;7.04;100.00
35778;BME280;21899;42.662;23.316;2022-10-16T03:50:50;95128.69;;;6.97;100.00
35778;BME280;21899;42.662;23.316;2022-10-16T03:53:16;95135.44;;;6.94;100.00
35778;BME280;21899;42.662;23.316;2022-10-16T03:55:42;95134.59;;;6.90;100.00
35778;BME280;21899;42.662;23.316;2022-10-16T03:58:07;95129.19;;;6.87;100.00
35778;BME280;21899;42.662;23.316;2022-10-16T04:00:33;95128.41;;;6.86;100.00
35778;BME280;21899;42.662;23.316;2022-10-16T04:02:59;95132.19;;;6.85;100.00
35778;BME280;21899;42.662;23.316;2022-10-16T04:05:24;95129.44;;;6.82;100.00
35778;BME280;21899;42.662;23.316;2022-10-16T04:07:50;95126.78;;;6.82;100.00
35778;BME280;21899;42.662;23.316;2022-10-16T04:10:15;95140.41;;;6.80;100.00
35778;BME280;21899;42.662;23.316;2022-10-16T04:12:40;95137.41;;;6.82;100.00
35778;BME280;21899;42.662;23.316;2022-10-16T04:15:06;95138.44;;;6.77;100.00
35778;BME280;21899;42.662;23.316;2022-10-16T04:17:31;95135.09;;;6.80;100.00
35778;BME280;21899;42.662;23.316;2022-10-16T04:19:56;95132.69;;;6.75;100.00
35778;BME280;21899;42.662;23.316;2022-10-16T04:22:21;95134.22;;;6.76;100.00
35778;BME280;21899;42.662;23.316;2022-10-16T04:24:47;95140.66;;;6.75;100.00
35778;BME280;21899;42.662;23.316;2022-10-16T04:27:12;95138.44;;;6.77;100.00
35778;BME280;21899;42.662;23.316;2022-10-16T04:29:37;95137.56;;;6.73;100.00
35778;BME280;21899;42.662;23.316;2022-10-16T04:32:03;95145.81;;;6.68;100.00
35778;BME280;21899;42.662;23.316;2022-10-16T04:34:28;95150.69;;;6.66;100.00
35778;BME280;21899;42.662;23.316;2022-10-16T04:36:53;95150.28;;;6.64;100.00
35778;BME280;21899;42.662;23.316;2022-10-16T04:39:19;95150.94;;;6.61;100.00
35778;BME280;21899;42.662;23.316;2022-10-16T04:41:44;95151.72;;;6.61;100.00
35778;BME280;21899;42.662;23.316;2022-10-16T04:44:09;95148.34;;;6.64;100.00
35778;BME280;21899;42.662;23.316;2022-10-16T04:46:34;95146.81;;;6.63;100.00
35778;BME280;21899;42.662;23.316;2022-10-16T04:49:00;95157.81;;;6.62;100.00
35778;BME280;21899;42.662;23.316;2022-10-16T04:51:25;95155.41;;;6.57;100.00
35778;BME280;21899;42.662;23.316;2022-10-16T04:53:51;95160.81;;;6.60;100.00
35778;BME280;21899;42.662;23.316;2022-10-16T04:56:16;95166.72;;;6.70;100.00
35778;BME280;21899;42.662;23.316;2022-10-16T04:58:41;95165.41;;;6.76;100.00
35778;BME280;21899;42.662;23.316;2022-10-16T05:01:07;95175.00;;;6.80;100.00
35778;BME280;21899;42.662;23.316;2022-10-16T05:03:32;95172.34;;;6.80;100.00
35778;BME280;21899;42.662;23.316;2022-10-16T05:05:57;95180.78;;;6.82;100.00
35778;BME280;21899;42.662;23.316;2022-10-16T05:08:23;95177.84;;;6.87;100.00
35778;BME280;21899;42.662;23.316;2022-10-16T05:10:48;95177.97;;;6.91;100.00
35778;BME280;21899;42.662;23.316;2022-10-16T05:13:13;95181.03;;;6.93;100.00
35778;BME280;21899;42.662;23.316;2022-10-16T05:15:39;95180.88;;;7.01;100.00
35778;BME280;21899;42.662;23.316;2022-10-16T05:18:04;95189.47;;;7.10;100.00
35778;BME280;21899;42.662;23.316;2022-10-16T05:20:29;95187.06;;;7.21;100.00
35778;BME280;21899;42.662;23.316;2022-10-16T05:22:55;95192.22;;;7.29;100.00
35778;BME280;21899;42.662;23.316;2022-10-16T05:25:20;95179.09;;;7.36;100.00
35778;BME280;21899;42.662;23.316;2022-10-16T05:27:48;95194.38;;;7.39;100.00
35778;BME280;21899;42.662;23.316;2022-10-16T05:30:14;95190.75;;;7.47;100.00
35778;BME280;21899;42.662;23.316;2022-10-16T05:32:39;95189.56;;;7.60;100.00
35778;BME280;21899;42.662;23.316;2022-10-16T05:35:05;95191.81;;;7.58;100.00
35778;BME280;21899;42.662;23.316;2022-10-16T05:37:30;95184.16;;;7.57;100.00
35778;BME280;21899;42.662;23.316;2022-10-16T05:39:55;95194.88;;;7.60;100.00
35778;BME280;21899;42.662;23.316;2022-10-16T05:42:21;95191.72;;;7.55;100.00
35778;BME280;21899;42.662;23.316;2022-10-16T05:44:46;95195.84;;;7.52;100.00
35778;BME280;21899;42.662;23.316;2022-10-16T05:47:14;95196.78;;;7.60;100.00
35778;BME280;21899;42.662;23.316;2022-10-16T05:49:40;95194.22;;;7.63;100.00
35778;BME280;21899;42.662;23.316;2022-10-16T05:52:05;95194.59;;;7.81;100.00
35778;BME280;21899;42.662;23.316;2022-10-16T05:54:30;95208.59;;;7.93;100.00
35778;BME280;21899;42.662;23.316;2022-10-16T05:56:55;95203.84;;;8.03;100.00
35778;BME280;21899;42.662;23.316;2022-10-16T05:59:21;95209.63;;;8.05;100.00
35778;BME280;21899;42.662;23.316;2022-10-16T06:01:46;95224.22;;;8.11;100.00
35778;BME280;21899;42.662;23.316;2022-10-16T06:04:11;95221.56;;;8.11;100.00
35778;BME280;21899;42.662;23.316;2022-10-16T06:06:36;95229.38;;;8.04;100.00
35778;BME280;21899;42.662;23.316;2022-10-16T06:09:02;95234.63;;;8.16;100.00
35778;BME280;21899;42.662;23.316;2022-10-16T06:11:29;95235.44;;;8.35;100.00
35778;BME280;21899;42.662;23.316;2022-10-16T06:13:55;95231.97;;;8.50;100.00
35778;BME280;21899;42.662;23.316;2022-10-16T06:16:21;95236.81;;;8.64;100.00
35778;BME280;21899;42.662;23.316;2022-10-16T06:18:47;95239.47;;;8.83;100.00
35778;BME280;21899;42.662;23.316;2022-10-16T06:21:19;95237.09;;;8.97;100.00
35778;BME280;21899;42.662;23.316;2022-10-16T06:23:45;95247.31;;;9.14;100.00
35778;BME280;21899;42.662;23.316;2022-10-16T06:26:12;95245.94;;;9.01;99.62
35778;BME280;21899;42.662;23.316;2022-10-16T06:28:38;95251.69;;;9.03;98.79
35778;BME280;21899;42.662;23.316;2022-10-16T06:31:04;95248.19;;;8.99;99.10
35778;BME280;21899;42.662;23.316;2022-10-16T06:33:29;95257.47;;;9.05;99.19
35778;BME280;21899;42.662;23.316;2022-10-16T06:36:05;95252.25;;;9.12;98.49
35778;BME280;21899;42.662;23.316;2022-10-16T06:38:31;95261.22;;;9.23;98.72
35778;BME280;21899;42.662;23.316;2022-10-16T06:40:57;95251.50;;;9.34;98.47
35778;BME280;21899;42.662;23.316;2022-10-16T06:43:22;95260.53;;;9.49;96.78
35778;BME280;21899;42.662;23.316;2022-10-16T06:45:54;95262.09;;;9.50;95.05
35778;BME280;21899;42.662;23.316;2022-10-16T06:48:20;95259.28;;;9.65;95.21
35778;BME280;21899;42.662;23.316;2022-10-16T06:50:58;95261.66;;;9.70;94.46
35778;BME280;21899;42.662;23.316;2022-10-16T06:53:24;95265.59;;;9.76;94.16
35778;BME280;21899;42.662;23.316;2022-10-16T06:55:50;95270.41;;;9.67;93.98
35778;BME280;21899;42.662;23.316;2022-10-16T06:58:15;95280.75;;;9.46;96.23
35778;BME280;21899;42.662;23.316;2022-10-16T07:00:40;95281.97;;;9.52;95.82
35778;BME280;21899;42.662;23.316;2022-10-16T07:03:05;95279.00;;;9.57;95.95
35778;BME280;21899;42.662;23.316;2022-10-16T07:05:31;95283.41;;;9.69;95.37
35778;BME280;21899;42.662;23.316;2022-10-16T07:07:56;95288.53;;;9.77;95.04
35778;BME280;21899;42.662;23.316;2022-10-16T07:10:21;95285.69;;;9.89;93.63
35778;BME280;21899;42.662;23.316;2022-10-16T07:12:49;95284.38;;;10.02;92.83
35778;BME280;21899;42.662;23.316;2022-10-16T07:15:14;95289.56;;;10.14;92.61
35778;BME280;21899;42.662;23.316;2022-10-16T07:17:39;95280.19;;;10.27;92.22
35778;BME280;21899;42.662;23.316;2022-10-16T07:20:05;95287.84;;;10.55;90.62
35778;BME280;21899;42.662;23.316;2022-10-16T07:22:30;95294.72;;;10.52;88.76
35778;BME280;21899;42.662;23.316;2022-10-16T07:24:55;95296.03;;;10.66;89.19
35778;BME280;21899;42.662;23.316;2022-10-16T07:27:21;95288.88;;;10.73;88.78
35778;BME280;21899;42.662;23.316;2022-10-16T07:29:48;95292.16;;;10.93;88.24
35778;BME280;21899;42.662;23.316;2022-10-16T07:32:14;95300.81;;;11.09;87.15
35778;BME280;21899;42.662;23.316;2022-10-16T07:34:39;95297.41;;;11.12;86.18
35778;BME280;21899;42.662;23.316;2022-10-16T07:37:04;95297.13;;;11.24;85.18
35778;BME280;21899;42.662;23.316;2022-10-16T07:39:30;95292.97;;;11.26;84.72
35778;BME280;21899;42.662;23.316;2022-10-16T07:41:55;95296.91;;;11.36;84.21
35778;BME280;21899;42.662;23.316;2022-10-16T07:44:20;95300.47;;;11.47;84.42
35778;BME280;21899;42.662;23.316;2022-10-16T07:46:46;95300.47;;;11.47;82.95
35778;BME280;21899;42.662;23.316;2022-10-16T07:49:11;95296.41;;;11.60;82.02
35778;BME280;21899;42.662;23.316;2022-10-16T07:51:36;95299.31;;;11.81;81.74
35778;BME280;21899;42.662;23.316;2022-10-16T07:54:03;95299.50;;;12.02;79.33
35778;BME280;21899;42.662;23.316;2022-10-16T07:56:30;95301.53;;;12.16;79.95
35778;BME280;21899;42.662;23.316;2022-10-16T07:58:55;95303.84;;;12.17;79.11
35778;BME280;21899;42.662;23.316;2022-10-16T08:01:21;95303.09;;;12.20;78.12
35778;BME280;21899;42.662;23.316;2022-10-16T08:03:50;95312.28;;;12.19;77.60
35778;BME280;21899;42.662;23.316;2022-10-16T08:06:16;95305.56;;;12.43;76.74
35778;BME280;21899;42.662;23.316;2022-10-16T08:08:42;95305.56;;;12.43;76.03
35778;BME280;21899;42.662;23.316;2022-10-16T08:11:07;95305.97;;;12.48;75.82
35778;BME280;21899;42.662;23.316;2022-10-16T08:13:32;95298.72;;;12.52;75.65
35778;BME280;21899;42.662;23.316;2022-10-16T08:15:58;95305.75;;;12.67;74.91
35778;BME280;21899;42.662;23.316;2022-10-16T08:18:23;95302.34;;;12.81;73.93
35778;BME280;21899;42.662;23.316;2022-10-16T08:20:54;95307.72;;;12.77;74.67
35778;BME280;21899;42.662;23.316;2022-10-16T08:23:19;95303.09;;;12.78;73.84
35778;BME280;21899;42.662;23.316;2022-10-16T08:25:45;95304.19;;;12.70;73.67
35778;BME280;21899;42.662;23.316;2022-10-16T08:28:10;95303.50;;;12.80;75.12
35778;BME280;21899;42.662;23.316;2022-10-16T08:30:36;95295.91;;;12.99;76.46
35778;BME280;21899;42.662;23.316;2022-10-16T08:33:02;95297.50;;;13.07;72.37
35778;BME280;21899;42.662;23.316;2022-10-16T08:35:27;95297.16;;;13.05;70.72
35778;BME280;21899;42.662;23.316;2022-10-16T08:37:53;95299.06;;;13.05;71.80
35778;BME280;21899;42.662;23.316;2022-10-16T08:40:20;95299.09;;;13.12;71.40
35778;BME280;21899;42.662;23.316;2022-10-16T08:50:41;95296.13;;;13.49;68.47
35778;BME280;21899;42.662;23.316;2022-10-16T08:53:07;95305.34;;;13.48;67.23
35778;BME280;21899;42.662;23.316;2022-10-16T08:55:40;95301.50;;;13.42;67.10
35778;BME280;21899;42.662;23.316;2022-10-16T08:58:13;95305.72;;;13.43;65.86
35778;BME280;21899;42.662;23.316;2022-10-16T09:00:39;95311.53;;;13.59;64.92
35778;BME280;21899;42.662;23.316;2022-10-16T09:03:23;95313.09;;;13.74;64.74
35778;BME280;21899;42.662;23.316;2022-10-16T09:21:10;95303.13;;;14.87;54.90
35778;BME280;21899;42.662;23.316;2022-10-16T09:23:39;95298.47;;;15.05;53.89
35778;BME280;21899;42.662;23.316;2022-10-16T09:26:04;95299.56;;;15.21;52.43
35778;BME280;21899;42.662;23.316;2022-10-16T09:28:31;95300.75;;;15.03;52.19
35778;BME280;21899;42.662;23.316;2022-10-16T09:30:56;95301.16;;;14.94;52.48
35778;BME280;21899;42.662;23.316;2022-10-16T09:33:28;95305.41;;;14.99;50.68
35778;BME280;21899;42.662;23.316;2022-10-16T09:35:56;95306.59;;;14.80;51.71
35778;BME280;21899;42.662;23.316;2022-10-16T09:38:25;95300.84;;;14.82;51.62
35778;BME280;21899;42.662;23.316;2022-10-16T09:40:51;95299.31;;;14.70;52.00
35778;BME280;21899;42.662;23.316;2022-10-16T09:43:21;95295.84;;;14.80;52.21
35778;BME280;21899;42.662;23.316;2022-10-16T09:45:54;95301.94;;;14.98;50.54
35778;BME280;21899;42.662;23.316;2022-10-16T09:48:20;95293.06;;;14.98;49.20
35778;BME280;21899;42.662;23.316;2022-10-16T09:50:54;95285.38;;;14.96;49.60
35778;BME280;21899;42.662;23.316;2022-10-16T09:53:20;95287.72;;;14.87;50.19
35778;BME280;21899;42.662;23.316;2022-10-16T09:55:51;95280.03;;;14.82;49.75
35778;BME280;21899;42.662;23.316;2022-10-16T09:58:17;95293.09;;;14.94;48.14
35778;BME280;21899;42.662;23.316;2022-10-16T10:00:48;95290.69;;;15.17;47.94
35778;BME280;21899;42.662;23.316;2022-10-16T10:03:33;95283.75;;;15.27;46.80
35778;BME280;21899;42.662;23.316;2022-10-16T10:05:59;95284.47;;;15.38;47.71
35778;BME280;21899;42.662;23.316;2022-10-16T10:08:24;95284.38;;;15.59;47.40
35778;BME280;21899;42.662;23.316;2022-10-16T10:10:50;95290.06;;;15.75;45.91
35778;BME280;21899;42.662;23.316;2022-10-16T10:13:19;95281.25;;;15.64;45.83
35778;BME280;21899;42.662;23.316;2022-10-16T10:15:45;95280.50;;;15.63;46.31
35778;BME280;21899;42.662;23.316;2022-10-16T10:18:20;95276.56;;;15.75;45.88
35778;BME280;21899;42.662;23.316;2022-10-16T10:20:56;95284.75;;;15.64;45.23
35778;BME280;21899;42.662;23.316;2022-10-16T10:23:23;95280.47;;;15.67;44.69
35778;BME280;21899;42.662;23.316;2022-10-16T10:28:26;95279.63;;;15.77;45.04
35778;BME280;21899;42.662;23.316;2022-10-16T10:36:14;95268.53;;;16.23;44.79
35778;BME280;21899;42.662;23.316;2022-10-16T10:41:16;95260.44;;;16.19;42.63
35778;BME280;21899;42.662;23.316;2022-10-16T10:46:14;95260.31;;;15.86;42.82
35778;BME280;21899;42.662;23.316;2022-10-16T10:48:50;95257.34;;;15.66;43.44
35778;BME280;21899;42.662;23.316;2022-10-16T10:54:07;95252.63;;;15.81;43.04
35778;BME280;21899;42.662;23.316;2022-10-16T11:09:02;95234.13;;;16.27;41.22
35778;BME280;21899;42.662;23.316;2022-10-16T11:11:36;95237.63;;;16.24;40.99
35778;BME280;21899;42.662;23.316;2022-10-16T11:16:33;95233.69;;;16.35;40.71
35778;BME280;21899;42.662;23.316;2022-10-16T11:19:02;95222.78;;;16.49;40.85
35778;BME280;21899;42.662;23.316;2022-10-16T11:21:30;95224.56;;;16.59;39.38
35778;BME280;21899;42.662;23.316;2022-10-16T11:24:23;95226.16;;;16.57;38.15
35778;BME280;21899;42.662;23.316;2022-10-16T11:26:46;95215.63;;;16.66;37.89
35778;BME280;21899;42.662;23.316;2022-10-16T11:29:20;95215.16;;;16.74;37.49
35778;BME280;21899;42.662;23.316;2022-10-16T11:31:49;95219.88;;;16.67;37.21
35778;BME280;21899;42.662;23.316;2022-10-16T11:41:53;95220.16;;;16.76;39.01
35778;BME280;21899;42.662;23.316;2022-10-16T11:47:23;95217.50;;;17.06;39.08
35778;BME280;21899;42.662;23.316;2022-10-16T11:49:50;95218.03;;;17.24;38.37
35778;BME280;21899;42.662;23.316;2022-10-16T11:52:23;95220.84;;;17.17;40.28
35778;BME280;21899;42.662;23.316;2022-10-16T11:57:57;95231.94;;;17.26;36.78
35778;BME280;21899;42.662;23.316;2022-10-16T12:00:27;95223.44;;;17.24;37.13
35778;BME280;21899;42.662;23.316;2022-10-16T12:03:15;95219.94;;;17.27;37.26
35778;BME280;21899;42.662;23.316;2022-10-16T12:05:52;95217.13;;;17.34;38.29
35778;BME280;21899;42.662;23.316;2022-10-16T12:08:20;95217.03;;;17.41;39.19
35778;BME280;21899;42.662;23.316;2022-10-16T12:10:47;95216.09;;;17.25;40.38
35778;BME280;21899;42.662;23.316;2022-10-16T12:16:03;95223.91;;;17.49;40.27
35778;BME280;21899;42.662;23.316;2022-10-16T12:18:28;95213.28;;;17.35;38.96
35778;BME280;21899;42.662;23.316;2022-10-16T12:20:55;95220.22;;;17.36;39.02
35778;BME280;21899;42.662;23.316;2022-10-16T12:23:23;95214.97;;;17.52;39.20
35778;BME280;21899;42.662;23.316;2022-10-16T12:25:54;95214.78;;;17.66;39.08
35778;BME280;21899;42.662;23.316;2022-10-16T12:28:21;95220.91;;;17.70;38.91
35778;BME280;21899;42.662;23.316;2022-10-16T12:30:57;95218.72;;;17.62;39.33
35778;BME280;21899;42.662;23.316;2022-10-16T12:33:27;95220.88;;;17.44;40.19
35778;BME280;21899;42.662;23.316;2022-10-16T12:35:53;95218.94;;;17.44;40.26
35778;BME280;21899;42.662;23.316;2022-10-16T12:38:25;95216.13;;;17.55;40.10
35778;BME280;21899;42.662;23.316;2022-10-16T12:41:09;95228.38;;;17.33;39.73
35778;BME280;21899;42.662;23.316;2022-10-16T12:43:37;95221.22;;;17.16;40.16
35778;BME280;21899;42.662;23.316;2022-10-16T12:48:35;95224.78;;;17.09;40.31
35778;BME280;21899;42.662;23.316;2022-10-16T12:53:44;95222.53;;;17.04;40.55
35778;BME280;21899;42.662;23.316;2022-10-16T12:56:45;95225.94;;;17.12;40.78
35778;BME280;21899;42.662;23.316;2022-10-16T13:06:23;95234.31;;;16.90;41.65
35778;BME280;21899;42.662;23.316;2022-10-16T13:21:46;95234.59;;;17.30;40.43
35778;BME280;21899;42.662;23.316;2022-10-16T13:29:28;95228.97;;;17.47;37.86
35778;BME280;21899;42.662;23.316;2022-10-16T13:31:54;95233.22;;;17.48;38.51
35778;BME280;21899;42.662;23.316;2022-10-16T13:34:20;95229.06;;;17.40;37.74
35778;BME280;21899;42.662;23.316;2022-10-16T13:36:47;95227.47;;;17.43;38.27
35778;BME280;21899;42.662;23.316;2022-10-16T13:39:19;95239.78;;;17.47;38.37
35778;BME280;21899;42.662;23.316;2022-10-16T13:41:46;95234.81;;;17.42;38.52
35778;BME280;21899;42.662;23.316;2022-10-16T13:44:22;95233.97;;;17.49;38.36
35778;BME280;21899;42.662;23.316;2022-10-16T13:46:57;95236.34;;;17.47;38.91
35778;BME280;21899;42.662;23.316;2022-10-16T13:49:22;95233.38;;;17.34;39.03
35778;BME280;21899;42.662;23.316;2022-10-16T13:51:53;95229.63;;;17.25;39.41
35778;BME280;21899;42.662;23.316;2022-10-16T13:54:19;95238.38;;;17.36;39.48
35778;BME280;21899;42.662;23.316;2022-10-16T13:56:44;95239.44;;;17.45;39.46
35778;BME280;21899;42.662;23.316;2022-10-16T13:59:25;95237.88;;;17.48;39.47
35778;BME280;21899;42.662;23.316;2022-10-16T14:01:52;95243.28;;;17.44;40.30
35778;BME280;21899;42.662;23.316;2022-10-16T14:04:19;95246.75;;;17.48;40.62
35778;BME280;21899;42.662;23.316;2022-10-16T14:06:45;95241.03;;;17.39;40.10
35778;BME280;21899;42.662;23.316;2022-10-16T14:09:23;95242.59;;;17.40;40.66
35778;BME280;21899;42.662;23.316;2022-10-16T14:11:58;95249.25;;;17.32;39.07
35778;BME280;21899;42.662;23.316;2022-10-16T14:14:24;95250.41;;;17.31;39.32
35778;BME280;21899;42.662;23.316;2022-10-16T14:16:52;95263.59;;;17.29;39.44
35778;BME280;21899;42.662;23.316;2022-10-16T14:19:21;95253.00;;;17.12;39.32
35778;BME280;21899;42.662;23.316;2022-10-16T14:21:48;95255.31;;;17.10;38.87
35778;BME280;21899;42.662;23.316;2022-10-16T14:24:19;95251.56;;;17.00;38.85
35778;BME280;21899;42.662;23.316;2022-10-16T14:26:47;95258.19;;;16.96;38.53
35778;BME280;21899;42.662;23.316;2022-10-16T14:29:15;95257.91;;;16.86;38.39
35778;BME280;21899;42.662;23.316;2022-10-16T14:31:40;95268.91;;;16.69;39.10
35778;BME280;21899;42.662;23.316;2022-10-16T14:34:52;95265.91;;;16.60;39.84
35778;BME280;21899;42.662;23.316;2022-10-16T14:36:52;95265.88;;;16.63;39.36
35778;BME280;21899;42.662;23.316;2022-10-16T14:39:19;95269.78;;;16.59;39.61
35778;BME280;21899;42.662;23.316;2022-10-16T14:41:45;95268.31;;;16.51;40.23
35778;BME280;21899;42.662;23.316;2022-10-16T14:44:11;95266.75;;;16.50;40.00
35778;BME280;21899;42.662;23.316;2022-10-16T14:46:38;95268.41;;;16.37;39.99